createdAt,value
2023-04-13T00:00:43.093Z,0.40
2023-04-13T00:03:33.314Z,0.50
2023-04-13T00:06:22.696Z,0.30
2023-04-13T00:09:09.750Z,0.50
2023-04-13T00:12:01.397Z,0.40
2023-04-13T00:14:50.814Z,0.30
2023-04-13T00:17:37.989Z,0.30
2023-04-13T00:20:25.034Z,0.20
2023-04-13T00:23:12.372Z,0.37
2023-04-13T00:26:01.407Z,0.30
2023-04-13T00:28:48.913Z,0.10
2023-04-13T00:31:35.911Z,0.20
2023-04-13T00:34:22.904Z,0.10
2023-04-13T00:37:09.941Z,0.30
2023-04-13T00:39:58.080Z,0.17
2023-04-13T00:42:46.182Z,0.30
2023-04-13T00:45:39.583Z,0.30
2023-04-13T00:48:27.186Z,0.20
2023-04-13T00:51:18.148Z,0.20
2023-04-13T00:54:05.699Z,0.20
2023-04-13T00:56:54.241Z,0.30
2023-04-13T00:59:41.345Z,0.20
2023-04-13T01:02:29.767Z,0.40
2023-04-13T01:05:17.545Z,0.30
2023-04-13T01:08:24.365Z,0.23
2023-04-13T01:11:18.726Z,0.50
2023-04-13T01:14:30.829Z,0.20
2023-04-13T01:17:24.240Z,0.33
2023-04-13T01:20:14.127Z,0.13
2023-04-13T01:23:07.453Z,0.20
2023-04-13T01:26:04.114Z,0.30
2023-04-13T01:28:52.839Z,0.10
2023-04-13T01:31:40.878Z,0.27
2023-04-13T01:34:30.013Z,0.30
2023-04-13T01:37:17.741Z,0.30
2023-04-13T01:40:11.292Z,0.43
2023-04-13T01:43:03.428Z,0.17
2023-04-13T01:46:13.858Z,0.10
2023-04-13T01:49:16.076Z,0.30
2023-04-13T01:52:09.846Z,0.07
2023-04-13T01:54:59.763Z,0.30
2023-04-13T01:57:48.406Z,0.17
2023-04-13T02:00:38.137Z,0.40
2023-04-13T02:03:30.465Z,0.40
2023-04-13T02:06:17.691Z,0.40
2023-04-13T02:09:08.296Z,0.30
2023-04-13T02:11:56.114Z,0.30
2023-04-13T02:14:43.566Z,0.30
2023-04-13T02:17:32.326Z,0.30
2023-04-13T02:20:20.748Z,0.30
2023-04-13T02:23:08.840Z,0.30
2023-04-13T02:25:56.732Z,0.40
2023-04-13T02:28:43.746Z,0.20
2023-04-13T02:31:31.833Z,0.30
2023-04-13T02:34:19.242Z,0.30
2023-04-13T02:37:08.014Z,0.10
2023-04-13T02:39:55.792Z,0.30
2023-04-13T02:42:43.005Z,0.20
2023-04-13T02:45:33.011Z,0.10
2023-04-13T02:48:21.747Z,0.20
2023-04-13T02:51:09.807Z,0.10
2023-04-13T02:54:02.761Z,0.20
2023-04-13T02:56:55.935Z,0.27
2023-04-13T02:59:43.151Z,0.30
2023-04-13T03:02:31.300Z,0.40
2023-04-13T03:05:19.881Z,0.17
2023-04-13T03:08:07.297Z,0.20
2023-04-13T03:10:58.109Z,0.30
2023-04-13T03:13:45.147Z,0.20
2023-04-13T03:16:35.309Z,0.30
2023-04-13T03:19:23.793Z,0.40
2023-04-13T03:22:11.198Z,0.20
2023-04-13T03:25:04.268Z,0.40
2023-04-13T03:27:56.858Z,0.30
2023-04-13T03:30:45.540Z,0.30
2023-04-13T03:33:32.624Z,0.30
2023-04-13T03:36:21.487Z,0.20
2023-04-13T03:39:09.256Z,0.40
2023-04-13T03:41:58.252Z,0.40
2023-04-13T03:44:46.044Z,0.43
2023-04-13T03:47:33.299Z,0.50
2023-04-13T03:50:20.968Z,0.30
2023-04-13T03:53:09.208Z,0.50
2023-04-13T03:55:56.765Z,0.30
2023-04-13T03:58:43.817Z,0.30
2023-04-13T04:01:32.830Z,0.20
2023-04-13T04:04:19.901Z,0.40
2023-04-13T04:07:08.579Z,0.40
2023-04-13T04:09:56.175Z,0.20
2023-04-13T04:12:44.517Z,0.20
2023-04-13T04:15:31.527Z,0.30
2023-04-13T04:18:23.052Z,0.40
2023-04-13T04:21:11.254Z,0.20
2023-04-13T04:24:00.787Z,0.40
2023-04-13T04:26:49.952Z,0.37
2023-04-13T04:29:37.239Z,0.30
2023-04-13T04:32:37.493Z,0.30
2023-04-13T04:35:33.799Z,0.30
2023-04-13T04:38:24.976Z,0.50
2023-04-13T04:41:13.969Z,0.53
2023-04-13T04:44:02.718Z,0.40
2023-04-13T04:46:55.376Z,0.60
2023-04-13T04:49:42.860Z,0.40
2023-04-13T04:52:32.936Z,0.40
2023-04-13T04:55:21.420Z,0.30
2023-04-13T04:58:08.946Z,0.40
2023-04-13T05:00:57.119Z,0.20
2023-04-13T05:03:44.214Z,0.50
2023-04-13T05:06:44.566Z,0.30
2023-04-13T05:09:38.644Z,0.40
2023-04-13T05:12:26.789Z,0.40
2023-04-13T05:15:13.795Z,0.43
2023-04-13T05:18:00.942Z,0.50
2023-04-13T05:20:50.185Z,0.40
2023-04-13T05:23:38.648Z,0.47
2023-04-13T05:26:30.514Z,0.37
2023-04-13T05:29:17.782Z,0.40
2023-04-13T05:32:06.643Z,0.40
2023-04-13T05:34:53.763Z,0.53
2023-04-13T05:37:44.601Z,0.40
2023-04-13T05:40:38.107Z,0.40
2023-04-13T05:43:25.997Z,0.40
2023-04-13T05:46:16.021Z,0.40
2023-04-13T05:49:03.756Z,0.50
2023-04-13T05:51:51.360Z,0.40
2023-04-13T05:54:39.753Z,0.40
2023-04-13T05:57:27.147Z,0.40
2023-04-13T06:00:17.080Z,0.50
2023-04-13T06:03:16.215Z,0.57
2023-04-13T06:06:04.696Z,0.50
2023-04-13T06:08:53.054Z,0.60
2023-04-13T06:11:40.440Z,0.40
2023-04-13T06:14:27.827Z,0.40
2023-04-13T06:17:14.858Z,0.30
2023-04-13T06:20:02.185Z,0.40
2023-04-13T06:22:49.179Z,0.50
2023-04-13T06:25:40.520Z,0.40
2023-04-13T06:28:31.485Z,0.57
2023-04-13T06:31:20.934Z,0.50
2023-04-13T06:34:09.676Z,0.50
2023-04-13T06:36:57.550Z,0.67
2023-04-13T06:39:47.255Z,0.60
2023-04-13T06:42:34.853Z,0.60
2023-04-13T06:45:44.510Z,0.60
2023-04-13T06:48:38.687Z,0.60
2023-04-13T06:51:27.062Z,0.60
2023-04-13T06:54:15.558Z,0.67
2023-04-13T06:57:07.160Z,0.70
2023-04-13T06:59:54.529Z,0.57
2023-04-13T07:02:42.499Z,0.40
2023-04-13T07:05:30.413Z,0.43
2023-04-13T07:08:24.454Z,0.50
2023-04-13T07:11:11.678Z,0.70
2023-04-13T07:13:59.461Z,0.60
2023-04-13T07:16:46.469Z,0.77
2023-04-13T07:19:36.680Z,0.70
2023-04-13T07:22:23.662Z,0.73
2023-04-13T07:25:12.461Z,0.70
2023-04-13T07:27:59.870Z,0.80
2023-04-13T07:30:48.112Z,0.70
2023-04-13T07:33:35.760Z,0.80
2023-04-13T07:36:23.839Z,0.70
2023-04-13T07:39:13.773Z,0.67
2023-04-13T07:42:05.143Z,0.80
2023-04-13T07:45:03.929Z,0.80
2023-04-13T07:47:54.655Z,0.70
2023-04-13T07:50:43.212Z,0.70
2023-04-13T07:53:34.367Z,0.70
2023-04-13T07:56:22.631Z,0.80
2023-04-13T07:59:13.854Z,0.67
2023-04-13T08:02:01.217Z,0.70
2023-04-13T08:04:52.933Z,0.90
2023-04-13T08:07:46.646Z,0.80
2023-04-13T08:10:35.624Z,0.70
2023-04-13T08:13:26.998Z,0.70
2023-04-13T08:16:15.196Z,0.73
2023-04-13T08:19:03.515Z,0.60
2023-04-13T08:21:52.952Z,0.80
2023-04-13T08:24:40.021Z,0.60
2023-04-13T08:27:27.770Z,0.63
2023-04-13T08:30:14.871Z,0.67
2023-04-13T08:33:19.448Z,0.50
2023-04-13T08:36:07.639Z,0.60
2023-04-13T08:38:55.344Z,0.57
2023-04-13T08:41:47.699Z,0.70
2023-04-13T08:44:40.249Z,0.70
2023-04-13T08:47:28.632Z,0.50
2023-04-13T08:50:17.289Z,0.70
2023-04-13T08:53:08.583Z,0.60
2023-04-13T08:55:59.509Z,0.80
2023-04-13T08:58:48.015Z,0.80
2023-04-13T09:01:38.509Z,0.70
2023-04-13T09:04:31.858Z,0.57
2023-04-13T09:07:26.580Z,0.53
2023-04-13T09:10:20.353Z,0.70
2023-04-13T09:13:08.410Z,0.77
2023-04-13T09:15:56.620Z,0.83
2023-04-13T09:18:58.265Z,0.60
2023-04-13T09:21:45.738Z,0.60
2023-04-13T09:24:40.269Z,0.70
2023-04-13T09:27:27.236Z,0.80
2023-04-13T09:30:15.261Z,0.60
2023-04-13T09:33:06.299Z,0.77
2023-04-13T09:35:53.437Z,0.83
2023-04-13T09:38:40.524Z,0.70
2023-04-13T09:41:31.851Z,0.60
2023-04-13T09:44:20.747Z,0.60
2023-04-13T09:47:08.611Z,0.80
2023-04-13T09:49:56.046Z,1.40
2023-04-13T09:52:43.132Z,1.30
2023-04-13T09:55:32.772Z,1.10
2023-04-13T09:58:19.950Z,1.07
2023-04-13T10:01:07.153Z,0.70
2023-04-13T10:03:54.414Z,0.90
2023-04-13T10:06:43.254Z,1.00
2023-04-13T10:09:30.396Z,0.70
2023-04-13T10:12:17.552Z,0.87
2023-04-13T10:15:15.230Z,0.87
2023-04-13T10:18:02.195Z,1.00
2023-04-13T10:20:50.838Z,0.80
2023-04-13T10:23:39.056Z,0.80
2023-04-13T10:26:39.474Z,0.80
2023-04-13T10:29:28.191Z,0.70
2023-04-13T10:32:26.674Z,0.63
2023-04-13T10:35:15.758Z,0.97
2023-04-13T10:38:03.338Z,0.80
2023-04-13T10:40:51.174Z,0.90
2023-04-13T10:43:38.168Z,0.60
2023-04-13T10:46:25.256Z,0.70
2023-04-13T10:49:12.296Z,1.00
2023-04-13T10:51:59.318Z,0.77
2023-04-13T10:54:46.355Z,0.80
2023-04-13T10:57:35.011Z,0.80
2023-04-13T11:00:29.327Z,0.80
2023-04-13T11:03:28.942Z,1.20
2023-04-13T11:06:16.626Z,0.80
2023-04-13T11:09:07.238Z,0.60
2023-04-13T11:11:55.172Z,1.10
2023-04-13T11:14:51.503Z,0.90
2023-04-13T11:17:38.500Z,0.90
2023-04-13T11:20:36.963Z,0.90
2023-04-13T11:23:24.749Z,0.80
2023-04-13T11:26:11.732Z,0.83
2023-04-13T11:28:59.035Z,0.70
2023-04-13T11:31:46.763Z,1.10
2023-04-13T11:34:33.737Z,0.90
2023-04-13T11:37:21.738Z,0.80
2023-04-13T11:40:17.424Z,0.90
2023-04-13T11:43:06.594Z,1.00
2023-04-13T11:45:54.776Z,0.70
2023-04-13T11:48:42.379Z,0.90
2023-04-13T11:51:31.092Z,0.97
2023-04-13T11:54:18.614Z,0.60
2023-04-13T11:57:06.381Z,1.00
2023-04-13T11:59:54.041Z,0.90
2023-04-13T12:02:59.579Z,1.00
2023-04-13T12:05:49.089Z,1.03
2023-04-13T12:08:37.880Z,0.90
2023-04-13T12:11:41.533Z,0.90
2023-04-13T12:14:48.985Z,0.90
2023-04-13T12:17:41.205Z,0.77
2023-04-13T12:20:40.697Z,0.80
2023-04-13T12:23:28.457Z,0.90
2023-04-13T12:26:49.963Z,0.90
2023-04-13T12:29:23.184Z,0.97
2023-04-13T12:32:14.244Z,1.17
2023-04-13T12:35:01.812Z,0.90
2023-04-13T12:37:50.248Z,1.07
2023-04-13T12:40:37.419Z,1.00
2023-04-13T12:43:25.221Z,0.80
2023-04-13T12:46:12.195Z,0.83
2023-04-13T12:48:59.425Z,1.10
2023-04-13T12:51:46.727Z,0.93
2023-04-13T12:54:33.679Z,0.90
2023-04-13T12:57:21.284Z,1.10
2023-04-13T13:00:11.172Z,0.97
2023-04-13T13:03:10.486Z,0.90
2023-04-13T13:06:01.182Z,0.83
2023-04-13T13:08:48.175Z,0.80
2023-04-13T13:11:35.140Z,1.20
2023-04-13T13:14:22.309Z,1.10
2023-04-13T13:17:09.273Z,0.83
2023-04-13T13:19:56.980Z,0.87
2023-04-13T13:22:43.955Z,0.80
2023-04-13T13:25:31.949Z,0.70
2023-04-13T13:28:20.146Z,1.00
2023-04-13T13:31:08.372Z,0.90
2023-04-13T13:33:55.433Z,0.73
2023-04-13T13:36:42.382Z,0.70
2023-04-13T13:39:29.407Z,0.90
2023-04-13T13:42:16.375Z,0.90
2023-04-13T13:45:04.504Z,1.13
2023-04-13T13:47:53.376Z,0.87
2023-04-13T13:50:44.872Z,1.00
2023-04-13T13:53:33.169Z,0.93
2023-04-13T13:56:20.513Z,0.97
2023-04-13T13:59:07.453Z,0.80
2023-04-13T14:01:54.518Z,0.90
2023-04-13T14:04:41.706Z,1.10
2023-04-13T14:07:28.710Z,0.90
2023-04-13T14:10:16.083Z,1.00
2023-04-13T14:13:03.109Z,1.10
2023-04-13T14:15:50.628Z,0.90
2023-04-13T14:18:37.639Z,0.93
2023-04-13T14:21:24.799Z,1.27
2023-04-13T14:24:11.791Z,1.13
2023-04-13T14:26:58.842Z,1.10
2023-04-13T14:29:48.724Z,1.30
2023-04-13T14:32:35.785Z,0.90
2023-04-13T14:35:22.997Z,0.90
2023-04-13T14:38:11.365Z,1.10
2023-04-13T14:40:58.324Z,0.97
2023-04-13T14:43:45.337Z,0.90
2023-04-13T14:46:32.369Z,1.10
2023-04-13T14:49:19.415Z,0.90
2023-04-13T14:52:07.123Z,0.83
2023-04-13T14:54:57.194Z,1.40
2023-04-13T14:57:45.200Z,0.93
2023-04-13T15:00:41.783Z,0.90
2023-04-13T15:03:29.006Z,0.73
2023-04-13T15:06:16.425Z,1.10
2023-04-13T15:09:04.167Z,1.17
2023-04-13T15:11:51.957Z,0.90
2023-04-13T15:14:40.523Z,0.90
2023-04-13T15:17:29.465Z,1.10
2023-04-13T15:20:16.632Z,1.10
2023-04-13T15:23:03.583Z,1.07
2023-04-13T15:25:50.532Z,1.00
2023-04-13T15:28:37.647Z,1.00
2023-04-13T15:31:24.692Z,0.90
2023-04-13T15:34:11.694Z,0.90
2023-04-13T15:36:59.356Z,0.90
2023-04-13T15:39:46.337Z,1.00
2023-04-13T15:42:33.422Z,0.90
2023-04-13T15:45:21.013Z,1.30
2023-04-13T15:48:08.138Z,1.80
2023-04-13T15:50:59.159Z,1.17
2023-04-13T15:53:46.135Z,1.03
2023-04-13T15:56:33.101Z,0.80
2023-04-13T15:59:20.057Z,0.90
2023-04-13T16:02:07.593Z,1.20
2023-04-13T16:04:54.930Z,1.20
2023-04-13T16:07:42.039Z,1.03
2023-04-13T16:10:29.321Z,1.63
2023-04-13T16:13:19.788Z,1.10
2023-04-13T16:16:06.962Z,2.20
2023-04-13T16:18:53.954Z,2.40
2023-04-13T16:21:43.454Z,2.83
2023-04-13T16:24:31.080Z,7.67
2023-04-13T16:27:17.995Z,15.40
2023-04-13T16:30:05.759Z,18.03
2023-04-13T16:32:52.815Z,11.57
2023-04-13T16:35:39.947Z,5.40
2023-04-13T16:38:26.879Z,1.70
2023-04-13T16:41:14.047Z,0.90
2023-04-13T16:44:02.202Z,0.80
2023-04-13T16:46:49.244Z,0.70
2023-04-13T16:49:36.241Z,0.80
2023-04-13T16:52:23.263Z,1.00
2023-04-13T16:55:14.801Z,0.80
2023-04-13T16:58:01.951Z,0.70
2023-04-13T17:00:49.305Z,0.90
2023-04-13T17:03:36.437Z,0.63
2023-04-13T17:06:23.620Z,0.67
2023-04-13T17:09:10.575Z,0.80
2023-04-13T17:11:57.611Z,0.90
2023-04-13T17:14:45.477Z,0.80
2023-04-13T17:17:32.801Z,0.70
2023-04-13T17:20:19.868Z,0.97
2023-04-13T17:23:06.844Z,0.80
2023-04-13T17:25:53.996Z,0.80
2023-04-13T17:28:41.254Z,1.27
2023-04-13T17:31:28.442Z,1.00
2023-04-13T17:34:15.466Z,1.07
2023-04-13T17:37:02.436Z,1.20
2023-04-13T17:39:51.222Z,0.90
2023-04-13T17:42:38.145Z,1.00
2023-04-13T17:45:25.121Z,1.27
2023-04-13T17:48:12.152Z,1.30
2023-04-13T17:50:59.162Z,1.20
2023-04-13T17:53:46.260Z,1.07
2023-04-13T17:56:33.207Z,0.80
2023-04-13T17:59:20.186Z,0.83
2023-04-13T18:02:07.332Z,0.90
2023-04-13T18:04:54.323Z,1.00
2023-04-13T18:07:42.371Z,1.27
2023-04-13T18:10:29.312Z,1.30
2023-04-13T18:13:16.805Z,1.30
2023-04-13T18:16:03.924Z,1.40
2023-04-13T18:18:51.358Z,1.33
2023-04-13T18:21:39.150Z,1.50
2023-04-13T18:24:26.260Z,1.10
2023-04-13T18:27:13.276Z,1.10
2023-04-13T18:30:00.400Z,1.30
2023-04-13T18:32:51.299Z,1.00
2023-04-13T18:35:42.851Z,0.97
2023-04-13T18:38:29.804Z,0.90
2023-04-13T18:41:16.910Z,1.63
2023-04-13T18:44:04.009Z,1.17
2023-04-13T18:46:51.072Z,1.07
2023-04-13T18:49:38.237Z,1.00
2023-04-13T18:52:26.037Z,1.03
2023-04-13T18:55:13.135Z,0.90
2023-04-13T18:58:00.316Z,1.20
2023-04-13T19:00:47.746Z,1.00
2023-04-13T19:03:34.854Z,1.10
2023-04-13T19:06:21.950Z,1.17
2023-04-13T19:09:08.898Z,1.00
2023-04-13T19:12:01.175Z,1.27
2023-04-13T19:14:48.390Z,1.00
2023-04-13T19:17:35.473Z,1.37
2023-04-13T19:20:24.339Z,1.10
2023-04-13T19:23:11.765Z,1.47
2023-04-13T19:25:59.153Z,1.43
2023-04-13T19:28:48.177Z,1.07
2023-04-13T19:31:37.986Z,0.77
2023-04-13T19:34:25.120Z,1.17
2023-04-13T19:37:12.266Z,1.07
2023-04-13T19:39:59.468Z,1.20
2023-04-13T19:42:48.419Z,1.30
2023-04-13T19:45:35.962Z,1.00
2023-04-13T19:48:23.101Z,1.27
2023-04-13T19:51:10.217Z,1.17
2023-04-13T19:54:01.735Z,1.03
2023-04-13T19:56:49.270Z,1.00
2023-04-13T19:59:36.342Z,1.03
2023-04-13T20:02:24.027Z,1.20
2023-04-13T20:05:11.533Z,1.10
2023-04-13T20:07:59.017Z,1.30
2023-04-13T20:10:46.040Z,1.27
2023-04-13T20:13:33.071Z,1.10
2023-04-13T20:16:20.375Z,1.20
2023-04-13T20:19:11.526Z,1.13
2023-04-13T20:22:02.120Z,1.00
2023-04-13T20:24:49.135Z,1.20
2023-04-13T20:27:37.789Z,1.10
2023-04-13T20:30:25.031Z,1.10
2023-04-13T20:33:12.022Z,1.00
2023-04-13T20:35:59.063Z,1.00
2023-04-13T20:38:46.063Z,1.20
2023-04-13T20:41:34.841Z,1.37
2023-04-13T20:44:23.681Z,1.40
2023-04-13T20:47:13.341Z,1.30
2023-04-13T20:50:00.358Z,1.20
2023-04-13T20:52:50.845Z,1.33
2023-04-13T20:55:39.224Z,1.10
2023-04-13T20:58:26.211Z,1.40
2023-04-13T21:01:13.270Z,1.40
2023-04-13T21:04:01.092Z,1.40
2023-04-13T21:09:38.178Z,1.40
2023-04-13T21:12:28.122Z,1.70
2023-04-13T21:15:15.139Z,1.60
2023-04-13T21:18:02.202Z,1.30
2023-04-13T21:20:49.204Z,1.70
2023-04-13T21:23:37.205Z,1.50
2023-04-13T21:26:24.241Z,1.50
2023-04-13T21:29:11.183Z,1.37
2023-04-13T21:31:58.315Z,1.40
2023-04-13T21:34:45.284Z,1.50
2023-04-13T21:37:32.228Z,1.23
2023-04-13T21:40:19.327Z,1.50
2023-04-13T21:43:06.388Z,1.47
2023-04-13T21:45:54.909Z,1.50
2023-04-13T21:48:42.529Z,1.70
2023-04-13T21:51:29.471Z,1.80
2023-04-13T21:54:16.429Z,1.47
2023-04-13T21:57:04.281Z,1.30
2023-04-13T21:59:53.418Z,1.43
2023-04-13T22:02:41.517Z,1.23
2023-04-13T22:05:28.661Z,1.40
2023-04-13T22:08:15.629Z,1.57
2023-04-13T22:11:03.273Z,1.60
2023-04-13T22:13:50.226Z,1.57
2023-04-13T22:16:37.226Z,1.60
2023-04-13T22:19:24.241Z,1.80
2023-04-13T22:22:11.224Z,1.60
2023-04-13T22:24:58.177Z,1.80
2023-04-13T22:27:45.132Z,1.80
2023-04-13T22:30:32.448Z,1.63
2023-04-13T22:33:20.381Z,1.83
2023-04-13T22:36:17.467Z,1.30
2023-04-13T22:39:04.448Z,1.50
2023-04-13T22:41:51.955Z,1.57
2023-04-13T22:44:38.908Z,1.70
2023-04-13T22:47:26.263Z,1.33
2023-04-13T22:50:13.331Z,1.50
2023-04-13T22:53:00.289Z,1.40
2023-04-13T22:55:47.227Z,1.60
2023-04-13T22:58:34.166Z,1.53
2023-04-13T23:01:21.133Z,1.47
2023-04-13T23:04:08.247Z,1.40
2023-04-13T23:06:56.030Z,1.80
2023-04-13T23:09:42.998Z,1.30
2023-04-13T23:12:29.943Z,1.87
2023-04-13T23:15:17.010Z,1.40
2023-04-13T23:18:04.072Z,1.60
2023-04-13T23:20:51.052Z,1.50
2023-04-13T23:23:39.510Z,1.80
2023-04-13T23:26:26.655Z,1.80
2023-04-13T23:29:13.641Z,1.60
2023-04-13T23:32:00.731Z,1.67
2023-04-13T23:34:47.832Z,1.50
2023-04-13T23:37:34.800Z,1.73
2023-04-13T23:40:21.865Z,1.60
2023-04-13T23:43:08.810Z,1.70
2023-04-13T23:45:56.802Z,1.60
2023-04-13T23:48:43.830Z,1.70
2023-04-13T23:51:31.156Z,1.73
2023-04-13T23:54:18.149Z,1.63
2023-04-13T23:57:05.429Z,1.60
2023-04-13T23:59:57.123Z,1.50
